Crystal Island — 3EZJ3 — position and weather

sailwx.info

Track history (hours):
 
Tides and Currents Weather Stations Pressure Air Temp Water Temp Dewpoint Dewpoint Depression Visibility Wind Speed Wind Dir Waves Ship Positions

Crystal Island

Last reported at 2015-Jul-04 11:26 UTC. Time now 2015-Jul-04 11:46 UTC.
Position N 46°25' W 125°60'.

Length 169 m; draft 9.9 m.

Type: Cargo ship. MMSI: 372562000.

Date/timePositionNaut miles runAvg speedWind from/ knotsBaromVisibWave heightAir tempDewpointWater temp
2015-Jul-04 11:26N 46°25' W 125°60'13 9.7
2015-Jul-04 10:04N 46°23' W 125°41'5 9.7
2015-Jul-04 09:32N 46°22' W 125°34'2010.2
2015-Jul-04 07:33N 46°18' W 125°05'1010.2
2015-Jul-04 06:32N 46°16' W 124°50'1010.5
2015-Jul-04 05:33N 46°14' W 124°36'1111.2
2015-Jul-04 04:33N 46°13' W 124°20'1010.3
2015-Jul-04 03:33N 46°15' W 124°05'47 1.8
2015-Jul-03 01:28N 46°07' W 122°59'112 6.9
2015-Jul-02 09:10N 47°15' W 125°08'3413.1
2015-Jul-02 06:33N 47°48' W 125°23'1313.1
2015-Jul-02 05:33N 48°01' W 125°20'1313.5
2015-Jul-02 04:33N 48°14' W 125°14'1312.8
2015-Jul-02 03:33N 48°25' W 125°07'1111.3
2015-Jul-02 02:33N 48°31' W 124°52'1312.7
2015-Jul-02 01:33N 48°28' W 124°33'1212.0
2015-Jul-02 00:33N 48°23' W 124°16'1111.2
2015-Jul-01 23:33N 48°19' W 124°01'1111.2
2015-Jul-01 22:33N 48°16' W 123°44'1010.1
2015-Jul-01 21:33N 48°16' W 123°29'9 9.1
2015-Jul-01 20:33N 48°23' W 123°21'7 7.2
2015-Jul-01 19:33N 48°27' W 123°12'1313.1
2015-Jul-01 18:33N 48°40' W 123°15'1212.0
2015-Jul-01 17:33N 48°47' W 123°00'1212.4
2015-Jul-01 16:33N 48°56' W 123°13'1312.9
2015-Jul-01 15:33N 49°07' W 123°24'1212.4
2015-Jul-01 14:33N 49°19' W 123°18'7 6.8
2015-Jul-01 13:31N 49°19' W 123°08'0 0.0
2015-Jul-01 12:31N 49°19' W 123°08'0 0.0
2015-Jul-01 11:31N 49°19' W 123°08'0 0.0
2015-Jul-01 10:31N 49°19' W 123°08'0 0.0
2015-Jul-01 09:31N 49°19' W 123°08'0 0.0
2015-Jul-01 08:31N 49°19' W 123°08'0 0.0
2015-Jul-01 07:31N 49°19' W 123°08'0 0.0
2015-Jul-01 06:31N 49°19' W 123°08'0 0.0
2015-Jul-01 05:31N 49°19' W 123°08'0 0.0
2015-Jul-01 04:31N 49°19' W 123°08'0 0.0
2015-Jul-01 03:31N 49°19' W 123°08'0 0.0
2015-Jul-01 02:31N 49°19' W 123°08'0 0.0
2015-Jul-01 01:31N 49°19' W 123°08'0 0.0
2015-Jul-01 00:31N 49°19' W 123°08'0 0.0
2015-Jun-30 23:32N 49°19' W 123°08'0 0.0
2015-Jun-30 22:32N 49°19' W 123°08'0 0.0
2015-Jun-30 21:32N 49°19' W 123°08'0 0.0
2015-Jun-30 20:32N 49°19' W 123°08'0 0.0
2015-Jun-30 19:32N 49°19' W 123°08'0 0.0
2015-Jun-30 18:32N 49°19' W 123°08'0 0.0
2015-Jun-30 17:32N 49°19' W 123°08'0 0.0
2015-Jun-30 16:32N 49°19' W 123°08'0 0.0
2015-Jun-30 15:32N 49°19' W 123°08'0 0.0
2015-Jun-30 14:32N 49°19' W 123°08'0 0.0
2015-Jun-30 13:32N 49°19' W 123°08'0 0.0
2015-Jun-30 12:32N 49°19' W 123°08'0 0.0
2015-Jun-30 11:32N 49°19' W 123°08'0 0.0
2015-Jun-30 10:32N 49°19' W 123°08'0 0.0
2015-Jun-30 09:32N 49°19' W 123°08'0 0.0
2015-Jun-30 08:32N 49°19' W 123°08'0 0.0
2015-Jun-30 07:32N 49°19' W 123°08'0 0.0
2015-Jun-30 06:32N 49°19' W 123°08'0 0.0
2015-Jun-30 05:32N 49°19' W 123°08'0 0.0
2015-Jun-30 04:32N 49°19' W 123°08'0 0.0
2015-Jun-30 03:32N 49°19' W 123°08'0 0.0
2015-Jun-30 02:32N 49°19' W 123°08'0 0.0
2015-Jun-30 01:32N 49°19' W 123°08'0 0.0
2015-Jun-30 00:32N 49°19' W 123°08'0 0.0
2015-Jun-29 23:32N 49°19' W 123°08'0 0.0
2015-Jun-29 22:32N 49°19' W 123°08'0 0.0
2015-Jun-29 21:32N 49°19' W 123°08'0 0.0
2015-Jun-29 20:32N 49°19' W 123°08'0 0.0
2015-Jun-29 19:32N 49°19' W 123°08'0 0.0
2015-Jun-29 18:32N 49°19' W 123°08'0 0.0
2015-Jun-29 17:32N 49°19' W 123°08'0 0.0
2015-Jun-29 16:32N 49°19' W 123°08'0 0.0
2015-Jun-29 15:32N 49°19' W 123°08'0 0.0
2015-Jun-29 14:32N 49°19' W 123°08'0 0.0
2015-Jun-29 13:32N 49°19' W 123°08'0 0.0
2015-Jun-29 12:29N 49°19' W 123°08'0 0.0
2015-Jun-29 11:32N 49°19' W 123°08'0 0.0
2015-Jun-29 10:32N 49°19' W 123°08'0 0.0
2015-Jun-29 09:32N 49°19' W 123°08'0 0.0
2015-Jun-29 08:32N 49°19' W 123°08'0 0.0
2015-Jun-29 07:32N 49°19' W 123°08'0 0.0
2015-Jun-29 06:32N 49°19' W 123°08'0 0.0
2015-Jun-29 05:32N 49°19' W 123°08'1 0.9
2015-Jun-29 04:33N 49°19' W 123°09'2 2.3
2015-Jun-29 03:33N 49°17' W 123°11'0 0.0
2015-Jun-29 02:33N 49°17' W 123°11'0 0.0
2015-Jun-29 01:33N 49°17' W 123°11'0 0.2
2015-Jun-29 00:33N 49°17' W 123°11'0 0.1
2015-Jun-28 23:33N 49°17' W 123°11'0 0.1
2015-Jun-28 22:33N 49°17' W 123°11'0 0.0
2015-Jun-28 21:33N 49°17' W 123°11'0 0.0
2015-Jun-28 20:33N 49°17' W 123°11'0 0.1
2015-Jun-28 19:33N 49°17' W 123°11'0 0.0
2015-Jun-28 18:33N 49°17' W 123°11'0 0.0
2015-Jun-28 17:33N 49°17' W 123°11'0 0.0
2015-Jun-28 16:33N 49°17' W 123°11'0 0.0
2015-Jun-28 15:33N 49°17' W 123°11'0 0.0
2015-Jun-28 14:33N 49°17' W 123°11'0 0.1
2015-Jun-28 13:33N 49°17' W 123°11'0 0.1
2015-Jun-28 12:33N 49°17' W 123°11'0 0.0
2015-Jun-28 11:33N 49°17' W 123°11'0 0.1
2015-Jun-28 10:33N 49°17' W 123°11'0 0.1
2015-Jun-28 09:30N 49°17' W 123°11'0 0.2
2015-Jun-28 08:33N 49°17' W 123°11'0 0.0
2015-Jun-28 07:33N 49°17' W 123°11'0 0.0
2015-Jun-28 06:33N 49°17' W 123°11'0 0.1
2015-Jun-28 05:33N 49°17' W 123°11'0 0.1
2015-Jun-28 04:33N 49°17' W 123°11'0 0.0
2015-Jun-28 03:33N 49°17' W 123°11'0 0.0
2015-Jun-28 02:33N 49°17' W 123°11'0 0.0
2015-Jun-28 01:30N 49°17' W 123°11'0 0.0
2015-Jun-28 00:33N 49°17' W 123°11'0 0.0
2015-Jun-27 23:33N 49°17' W 123°11'0 0.0
2015-Jun-27 22:33N 49°17' W 123°11'0 0.0
2015-Jun-27 21:33N 49°17' W 123°11'0 0.0
2015-Jun-27 20:33N 49°17' W 123°11'0 0.0
2015-Jun-27 19:33N 49°17' W 123°11'0 0.0
2015-Jun-27 18:33N 49°17' W 123°11'0 0.0
2015-Jun-27 17:33N 49°17' W 123°11'0 0.0
2015-Jun-27 16:33N 49°17' W 123°11'0 0.0
2015-Jun-27 15:33N 49°17' W 123°11'0 0.0
2015-Jun-27 14:33N 49°17' W 123°11'0 0.0
2015-Jun-27 13:33N 49°17' W 123°11'0 0.0
2015-Jun-27 12:33N 49°17' W 123°11'0 0.0
2015-Jun-27 11:33N 49°17' W 123°11'0 0.0
2015-Jun-27 10:33N 49°17' W 123°11'0 0.0
2015-Jun-27 09:33N 49°17' W 123°11'0 0.1
2015-Jun-27 08:33N 49°17' W 123°11'0 0.1
2015-Jun-27 07:33N 49°17' W 123°11'0 0.0
2015-Jun-27 06:33N 49°17' W 123°11'0 0.1
2015-Jun-27 05:30N 49°17' W 123°11'0 0.1
2015-Jun-27 04:33N 49°17' W 123°11'0 0.0
2015-Jun-27 03:33N 49°17' W 123°11'0 0.0
2015-Jun-27 02:33N 49°17' W 123°11'0 0.1
2015-Jun-27 01:33N 49°17' W 123°11'0 0.0
2015-Jun-27 00:33N 49°17' W 123°11'0 0.1
2015-Jun-26 23:33N 49°17' W 123°11'0 0.0
2015-Jun-26 22:33N 49°17' W 123°11'0 0.0
2015-Jun-26 21:30N 49°17' W 123°11'0 0.0
2015-Jun-26 20:33N 49°17' W 123°11'0 0.0
2015-Jun-26 19:33N 49°17' W 123°11'0 0.0
2015-Jun-26 18:33N 49°17' W 123°11'0 0.0
2015-Jun-26 17:33N 49°17' W 123°11'0 0.0
2015-Jun-26 16:33N 49°17' W 123°11'0 0.0
2015-Jun-26 15:33N 49°17' W 123°11'0 0.1
2015-Jun-26 14:33N 49°17' W 123°11'3 3.4
2015-Jun-26 13:33N 49°18' W 123°06'1 0.6
2015-Jun-26 12:33N 49°18' W 123°05'0 0.0
2015-Jun-26 11:33N 49°18' W 123°05'0 0.0
2015-Jun-26 10:33N 49°18' W 123°05'0 0.0
2015-Jun-26 09:33N 49°18' W 123°05'0 0.1
2015-Jun-26 08:33N 49°18' W 123°05'0 0.1
2015-Jun-26 07:33N 49°18' W 123°05'0 0.0
2015-Jun-26 06:33N 49°18' W 123°05'0 0.0
2015-Jun-26 05:33N 49°18' W 123°05'0 0.0
2015-Jun-26 04:33N 49°18' W 123°05'0 0.0
2015-Jun-26 03:33N 49°18' W 123°05'0 0.1
2015-Jun-26 02:33N 49°18' W 123°05'0 0.1
2015-Jun-26 01:33N 49°18' W 123°05'0 0.0
2015-Jun-26 00:33N 49°18' W 123°05'0 0.0
2015-Jun-25 23:33N 49°18' W 123°05'0 0.0
2015-Jun-25 22:33N 49°18' W 123°05'0 0.1
2015-Jun-25 21:33N 49°18' W 123°05'0 0.1
2015-Jun-25 20:33N 49°18' W 123°05'0 0.0
2015-Jun-25 19:33N 49°18' W 123°05'0 0.0
2015-Jun-25 18:33N 49°18' W 123°05'0 0.0
2015-Jun-25 17:33N 49°18' W 123°05'0 0.1
2015-Jun-25 16:33N 49°18' W 123°05'0 0.1
2015-Jun-25 15:33N 49°18' W 123°05'0 0.0
2015-Jun-25 14:33N 49°18' W 123°05'0 0.0
2015-Jun-25 13:33N 49°18' W 123°05'0 0.0
2015-Jun-25 12:33N 49°18' W 123°05'0 0.0
2015-Jun-25 11:33N 49°18' W 123°05'0 0.0
2015-Jun-25 10:33N 49°18' W 123°05'0 0.0
2015-Jun-25 09:33N 49°18' W 123°05'0 0.0
2015-Jun-25 08:33N 49°18' W 123°05'0 0.1
2015-Jun-25 07:33N 49°18' W 123°05'0 0.2
2015-Jun-25 06:33N 49°18' W 123°05'0 0.0
2015-Jun-25 05:33N 49°18' W 123°05'0 0.0
2015-Jun-25 04:33N 49°18' W 123°05'0 0.0
2015-Jun-25 03:33N 49°18' W 123°05'0 0.2
2015-Jun-25 02:33N 49°18' W 123°05'5 4.6
2015-Jun-25 01:33N 49°18' W 123°12'0 0.4
2015-Jun-25 00:32N 49°17' W 123°12'0 0.0
2015-Jun-24 23:32N 49°17' W 123°12'0 0.0
2015-Jun-24 22:32N 49°17' W 123°12'0 0.0
2015-Jun-24 21:32N 49°17' W 123°12'0 0.0
2015-Jun-24 20:32N 49°17' W 123°12'0 0.0
2015-Jun-24 19:32N 49°17' W 123°12'0 0.0
2015-Jun-24 18:32N 49°17' W 123°12'0 0.0
2015-Jun-24 17:32N 49°17' W 123°12'0 0.0
2015-Jun-24 16:32N 49°17' W 123°12'0 0.0
2015-Jun-24 15:32N 49°17' W 123°12'0 0.0
2015-Jun-24 14:32N 49°17' W 123°12'0 0.0
2015-Jun-24 13:32N 49°17' W 123°12'0 0.1
2015-Jun-24 12:32N 49°17' W 123°12'0 0.1
2015-Jun-24 11:32N 49°17' W 123°12'  
Track history (hours):
 
Tides and Currents Weather Stations Pressure Air Temp Water Temp Dewpoint Dewpoint Depression Visibility Wind Speed Wind Dir Waves Ship Positions

Crystal Island

Last reported at 2015-Jul-04 11:26 UTC. Time now 2015-Jul-04 11:46 UTC.
Position N 46°25' W 125°60'.

Length 169 m; draft 9.9 m.

Type: Cargo ship. MMSI: 372562000.

Date/timePositionNaut miles runAvg speedWind from/ knotsBaromVisibWave heightAir tempDewpointWater temp
2015-Jul-04 11:26N 46°25' W 125°60'13 9.7
2015-Jul-04 10:04N 46°23' W 125°41'5 9.7
2015-Jul-04 09:32N 46°22' W 125°34'2010.2
2015-Jul-04 07:33N 46°18' W 125°05'1010.2
2015-Jul-04 06:32N 46°16' W 124°50'1010.5
2015-Jul-04 05:33N 46°14' W 124°36'1111.2
2015-Jul-04 04:33N 46°13' W 124°20'1010.3
2015-Jul-04 03:33N 46°15' W 124°05'47 1.8
2015-Jul-03 01:28N 46°07' W 122°59'112 6.9
2015-Jul-02 09:10N 47°15' W 125°08'3413.1
2015-Jul-02 06:33N 47°48' W 125°23'1313.1
2015-Jul-02 05:33N 48°01' W 125°20'1313.5
2015-Jul-02 04:33N 48°14' W 125°14'1312.8
2015-Jul-02 03:33N 48°25' W 125°07'1111.3
2015-Jul-02 02:33N 48°31' W 124°52'1312.7
2015-Jul-02 01:33N 48°28' W 124°33'1212.0
2015-Jul-02 00:33N 48°23' W 124°16'1111.2
2015-Jul-01 23:33N 48°19' W 124°01'1111.2
2015-Jul-01 22:33N 48°16' W 123°44'1010.1
2015-Jul-01 21:33N 48°16' W 123°29'9 9.1
2015-Jul-01 20:33N 48°23' W 123°21'7 7.2
2015-Jul-01 19:33N 48°27' W 123°12'1313.1
2015-Jul-01 18:33N 48°40' W 123°15'1212.0
2015-Jul-01 17:33N 48°47' W 123°00'1212.4
2015-Jul-01 16:33N 48°56' W 123°13'1312.9
2015-Jul-01 15:33N 49°07' W 123°24'1212.4
2015-Jul-01 14:33N 49°19' W 123°18'7 6.8
2015-Jul-01 13:31N 49°19' W 123°08'0 0.0
2015-Jul-01 12:31N 49°19' W 123°08'0 0.0
2015-Jul-01 11:31N 49°19' W 123°08'0 0.0
2015-Jul-01 10:31N 49°19' W 123°08'0 0.0
2015-Jul-01 09:31N 49°19' W 123°08'0 0.0
2015-Jul-01 08:31N 49°19' W 123°08'0 0.0
2015-Jul-01 07:31N 49°19' W 123°08'0 0.0
2015-Jul-01 06:31N 49°19' W 123°08'0 0.0
2015-Jul-01 05:31N 49°19' W 123°08'0 0.0
2015-Jul-01 04:31N 49°19' W 123°08'0 0.0
2015-Jul-01 03:31N 49°19' W 123°08'0 0.0
2015-Jul-01 02:31N 49°19' W 123°08'0 0.0
2015-Jul-01 01:31N 49°19' W 123°08'0 0.0
2015-Jul-01 00:31N 49°19' W 123°08'0 0.0
2015-Jun-30 23:32N 49°19' W 123°08'0 0.0
2015-Jun-30 22:32N 49°19' W 123°08'0 0.0
2015-Jun-30 21:32N 49°19' W 123°08'0 0.0
2015-Jun-30 20:32N 49°19' W 123°08'0 0.0
2015-Jun-30 19:32N 49°19' W 123°08'0 0.0
2015-Jun-30 18:32N 49°19' W 123°08'0 0.0
2015-Jun-30 17:32N 49°19' W 123°08'0 0.0
2015-Jun-30 16:32N 49°19' W 123°08'0 0.0
2015-Jun-30 15:32N 49°19' W 123°08'0 0.0
2015-Jun-30 14:32N 49°19' W 123°08'0 0.0
2015-Jun-30 13:32N 49°19' W 123°08'0 0.0
2015-Jun-30 12:32N 49°19' W 123°08'0 0.0
2015-Jun-30 11:32N 49°19' W 123°08'0 0.0
2015-Jun-30 10:32N 49°19' W 123°08'0 0.0
2015-Jun-30 09:32N 49°19' W 123°08'0 0.0
2015-Jun-30 08:32N 49°19' W 123°08'0 0.0
2015-Jun-30 07:32N 49°19' W 123°08'0 0.0
2015-Jun-30 06:32N 49°19' W 123°08'0 0.0
2015-Jun-30 05:32N 49°19' W 123°08'0 0.0
2015-Jun-30 04:32N 49°19' W 123°08'0 0.0
2015-Jun-30 03:32N 49°19' W 123°08'0 0.0
2015-Jun-30 02:32N 49°19' W 123°08'0 0.0
2015-Jun-30 01:32N 49°19' W 123°08'0 0.0
2015-Jun-30 00:32N 49°19' W 123°08'0 0.0
2015-Jun-29 23:32N 49°19' W 123°08'0 0.0
2015-Jun-29 22:32N 49°19' W 123°08'0 0.0
2015-Jun-29 21:32N 49°19' W 123°08'0 0.0
2015-Jun-29 20:32N 49°19' W 123°08'0 0.0
2015-Jun-29 19:32N 49°19' W 123°08'0 0.0
2015-Jun-29 18:32N 49°19' W 123°08'0 0.0
2015-Jun-29 17:32N 49°19' W 123°08'0 0.0
2015-Jun-29 16:32N 49°19' W 123°08'0 0.0
2015-Jun-29 15:32N 49°19' W 123°08'0 0.0
2015-Jun-29 14:32N 49°19' W 123°08'0 0.0
2015-Jun-29 13:32N 49°19' W 123°08'0 0.0
2015-Jun-29 12:29N 49°19' W 123°08'0 0.0
2015-Jun-29 11:32N 49°19' W 123°08'0 0.0
2015-Jun-29 10:32N 49°19' W 123°08'0 0.0
2015-Jun-29 09:32N 49°19' W 123°08'0 0.0
2015-Jun-29 08:32N 49°19' W 123°08'0 0.0
2015-Jun-29 07:32N 49°19' W 123°08'0 0.0
2015-Jun-29 06:32N 49°19' W 123°08'0 0.0
2015-Jun-29 05:32N 49°19' W 123°08'1 0.9
2015-Jun-29 04:33N 49°19' W 123°09'2 2.3
2015-Jun-29 03:33N 49°17' W 123°11'0 0.0
2015-Jun-29 02:33N 49°17' W 123°11'0 0.0
2015-Jun-29 01:33N 49°17' W 123°11'0 0.2
2015-Jun-29 00:33N 49°17' W 123°11'0 0.1
2015-Jun-28 23:33N 49°17' W 123°11'0 0.1
2015-Jun-28 22:33N 49°17' W 123°11'0 0.0
2015-Jun-28 21:33N 49°17' W 123°11'0 0.0
2015-Jun-28 20:33N 49°17' W 123°11'0 0.1
2015-Jun-28 19:33N 49°17' W 123°11'0 0.0
2015-Jun-28 18:33N 49°17' W 123°11'0 0.0
2015-Jun-28 17:33N 49°17' W 123°11'0 0.0
2015-Jun-28 16:33N 49°17' W 123°11'0 0.0
2015-Jun-28 15:33N 49°17' W 123°11'0 0.0
2015-Jun-28 14:33N 49°17' W 123°11'0 0.1
2015-Jun-28 13:33N 49°17' W 123°11'0 0.1
2015-Jun-28 12:33N 49°17' W 123°11'0 0.0
2015-Jun-28 11:33N 49°17' W 123°11'0 0.1
2015-Jun-28 10:33N 49°17' W 123°11'0 0.1
2015-Jun-28 09:30N 49°17' W 123°11'0 0.2
2015-Jun-28 08:33N 49°17' W 123°11'0 0.0
2015-Jun-28 07:33N 49°17' W 123°11'0 0.0
2015-Jun-28 06:33N 49°17' W 123°11'0 0.1
2015-Jun-28 05:33N 49°17' W 123°11'0 0.1
2015-Jun-28 04:33N 49°17' W 123°11'0 0.0
2015-Jun-28 03:33N 49°17' W 123°11'0 0.0
2015-Jun-28 02:33N 49°17' W 123°11'0 0.0
2015-Jun-28 01:30N 49°17' W 123°11'0 0.0
2015-Jun-28 00:33N 49°17' W 123°11'0 0.0
2015-Jun-27 23:33N 49°17' W 123°11'0 0.0
2015-Jun-27 22:33N 49°17' W 123°11'0 0.0
2015-Jun-27 21:33N 49°17' W 123°11'0 0.0
2015-Jun-27 20:33N 49°17' W 123°11'0 0.0
2015-Jun-27 19:33N 49°17' W 123°11'0 0.0
2015-Jun-27 18:33N 49°17' W 123°11'0 0.0
2015-Jun-27 17:33N 49°17' W 123°11'0 0.0
2015-Jun-27 16:33N 49°17' W 123°11'0 0.0
2015-Jun-27 15:33N 49°17' W 123°11'0 0.0
2015-Jun-27 14:33N 49°17' W 123°11'0 0.0
2015-Jun-27 13:33N 49°17' W 123°11'0 0.0
2015-Jun-27 12:33N 49°17' W 123°11'0 0.0
2015-Jun-27 11:33N 49°17' W 123°11'0 0.0
2015-Jun-27 10:33N 49°17' W 123°11'0 0.0
2015-Jun-27 09:33N 49°17' W 123°11'0 0.1
2015-Jun-27 08:33N 49°17' W 123°11'0 0.1
2015-Jun-27 07:33N 49°17' W 123°11'0 0.0
2015-Jun-27 06:33N 49°17' W 123°11'0 0.1
2015-Jun-27 05:30N 49°17' W 123°11'0 0.1
2015-Jun-27 04:33N 49°17' W 123°11'0 0.0
2015-Jun-27 03:33N 49°17' W 123°11'0 0.0
2015-Jun-27 02:33N 49°17' W 123°11'0 0.1
2015-Jun-27 01:33N 49°17' W 123°11'0 0.0
2015-Jun-27 00:33N 49°17' W 123°11'0 0.1
2015-Jun-26 23:33N 49°17' W 123°11'0 0.0
2015-Jun-26 22:33N 49°17' W 123°11'0 0.0
2015-Jun-26 21:30N 49°17' W 123°11'0 0.0
2015-Jun-26 20:33N 49°17' W 123°11'0 0.0
2015-Jun-26 19:33N 49°17' W 123°11'0 0.0
2015-Jun-26 18:33N 49°17' W 123°11'0 0.0
2015-Jun-26 17:33N 49°17' W 123°11'0 0.0
2015-Jun-26 16:33N 49°17' W 123°11'0 0.0
2015-Jun-26 15:33N 49°17' W 123°11'0 0.1
2015-Jun-26 14:33N 49°17' W 123°11'3 3.4
2015-Jun-26 13:33N 49°18' W 123°06'1 0.6
2015-Jun-26 12:33N 49°18' W 123°05'0 0.0
2015-Jun-26 11:33N 49°18' W 123°05'0 0.0
2015-Jun-26 10:33N 49°18' W 123°05'0 0.0
2015-Jun-26 09:33N 49°18' W 123°05'0 0.1
2015-Jun-26 08:33N 49°18' W 123°05'0 0.1
2015-Jun-26 07:33N 49°18' W 123°05'0 0.0
2015-Jun-26 06:33N 49°18' W 123°05'0 0.0
2015-Jun-26 05:33N 49°18' W 123°05'0 0.0
2015-Jun-26 04:33N 49°18' W 123°05'0 0.0
2015-Jun-26 03:33N 49°18' W 123°05'0 0.1
2015-Jun-26 02:33N 49°18' W 123°05'0 0.1
2015-Jun-26 01:33N 49°18' W 123°05'0 0.0
2015-Jun-26 00:33N 49°18' W 123°05'0 0.0
2015-Jun-25 23:33N 49°18' W 123°05'0 0.0
2015-Jun-25 22:33N 49°18' W 123°05'0 0.1
2015-Jun-25 21:33N 49°18' W 123°05'0 0.1
2015-Jun-25 20:33N 49°18' W 123°05'0 0.0
2015-Jun-25 19:33N 49°18' W 123°05'0 0.0
2015-Jun-25 18:33N 49°18' W 123°05'0 0.0
2015-Jun-25 17:33N 49°18' W 123°05'0 0.1
2015-Jun-25 16:33N 49°18' W 123°05'0 0.1
2015-Jun-25 15:33N 49°18' W 123°05'0 0.0
2015-Jun-25 14:33N 49°18' W 123°05'0 0.0
2015-Jun-25 13:33N 49°18' W 123°05'0 0.0
2015-Jun-25 12:33N 49°18' W 123°05'0 0.0
2015-Jun-25 11:33N 49°18' W 123°05'0 0.0
2015-Jun-25 10:33N 49°18' W 123°05'0 0.0
2015-Jun-25 09:33N 49°18' W 123°05'0 0.0
2015-Jun-25 08:33N 49°18' W 123°05'0 0.1
2015-Jun-25 07:33N 49°18' W 123°05'0 0.2
2015-Jun-25 06:33N 49°18' W 123°05'0 0.0
2015-Jun-25 05:33N 49°18' W 123°05'0 0.0
2015-Jun-25 04:33N 49°18' W 123°05'0 0.0
2015-Jun-25 03:33N 49°18' W 123°05'0 0.2
2015-Jun-25 02:33N 49°18' W 123°05'5 4.6
2015-Jun-25 01:33N 49°18' W 123°12'0 0.4
2015-Jun-25 00:32N 49°17' W 123°12'0 0.0
2015-Jun-24 23:32N 49°17' W 123°12'0 0.0
2015-Jun-24 22:32N 49°17' W 123°12'0 0.0
2015-Jun-24 21:32N 49°17' W 123°12'0 0.0
2015-Jun-24 20:32N 49°17' W 123°12'0 0.0
2015-Jun-24 19:32N 49°17' W 123°12'0 0.0
2015-Jun-24 18:32N 49°17' W 123°12'0 0.0
2015-Jun-24 17:32N 49°17' W 123°12'0 0.0
2015-Jun-24 16:32N 49°17' W 123°12'0 0.0
2015-Jun-24 15:32N 49°17' W 123°12'0 0.0
2015-Jun-24 14:32N 49°17' W 123°12'0 0.0
2015-Jun-24 13:32N 49°17' W 123°12'0 0.1
2015-Jun-24 12:32N 49°17' W 123°12'0 0.1
2015-Jun-24 11:32N 49°17' W 123°12'  

Dump ship's entire track history